Time;durP1;ratioP1;P1;durP2;ratioP2;P2;SDS_P1;SDS_P2;PMS_P1;PMS_P2;Temp;Humidity;BMP_temperature;BMP_pressure;BME280_temperature;BME280_humidity;BME280_pressure;Samples;Min_cycle;Max_cycle;Signal;HPM_P1;HPM_P2
2022/11/15 00:00:16;;;;;;;43.45;18.48;;;;;;;;;;5015223;28;20068;-39
2022/11/15 00:03:01;;;;;;;49.58;19.10;;;;;;;;;;5014462;28;20044;-39
2022/11/15 00:05:46;;;;;;;61.35;20.95;;;;;;;;;;5018342;28;20044;-39
2022/11/15 00:08:31;;;;;;;41.95;19.08;;;;;;;;;;5020163;28;20084;-39
2022/11/15 00:11:17;;;;;;;56.90;21.38;;;;;;;;;;5019438;28;20143;-40
2022/11/15 00:14:02;;;;;;;47.17;20.13;;;;;;;;;;5021223;28;20048;-41
2022/11/15 00:16:47;;;;;;;42.28;19.90;;;;;;;;;;5022693;28;20068;-39
2022/11/15 00:19:32;;;;;;;68.03;22.60;;;;;;;;;;5017587;28;20135;-39
2022/11/15 00:22:17;;;;;;;47.58;19.83;;;;;;;;;;5018474;28;20067;-39
2022/11/15 00:25:03;;;;;;;41.72;18.73;;;;;;;;;;5023102;28;20055;-40
2022/11/15 00:27:48;;;;;;;54.85;20.48;;;;;;;;;;5022350;28;20521;-39
2022/11/15 00:30:33;;;;;;;50.08;20.48;;;;;;;;;;5022026;28;20123;-40
2022/11/15 00:33:17;;;;;;;48.97;21.48;;;;;;;;;;5015965;28;20056;-39
2022/11/15 00:36:04;;;;;;;45.13;20.55;;;;;;;;;;5019445;28;20049;-39
2022/11/15 00:38:49;;;;;;;62.80;23.35;;;;;;;;;;5018151;28;20069;-39
2022/11/15 00:41:34;;;;;;;62.25;22.73;;;;;;;;;;5013561;28;20049;-40
2022/11/15 00:44:19;;;;;;;67.75;24.90;;;;;;;;;;5018290;28;20533;-38
2022/11/15 00:47:04;;;;;;;45.28;20.70;;;;;;;;;;5019836;28;20076;-39
2022/11/15 00:49:49;;;;;;;53.90;23.65;;;;;;;;;;5019234;28;20528;-39
2022/11/15 00:52:34;;;;;;;54.45;24.50;;;;;;;;;;5022656;28;20533;-38
2022/11/15 00:55:19;;;;;;;56.63;25.80;;;;;;;;;;5017781;28;20053;-40
2022/11/15 00:58:04;;;;;;;59.25;27.15;;;;;;;;;;5015666;28;20128;-39
2022/11/15 01:00:49;;;;;;;63.35;26.20;;;;;;;;;;5017477;28;20052;-39
2022/11/15 01:03:35;;;;;;;62.22;26.33;;;;;;;;;;5012380;28;20056;-39
2022/11/15 01:06:20;;;;;;;60.10;26.98;;;;;;;;;;5019270;28;20417;-41
2022/11/15 01:09:05;;;;;;;58.55;25.27;;;;;;;;;;5020135;28;20184;-39
2022/11/15 01:11:50;;;;;;;70.03;26.92;;;;;;;;;;5017413;28;20087;-40
2022/11/15 01:14:35;;;;;;;61.38;27.40;;;;;;;;;;5018900;28;20096;-39
2022/11/15 01:17:20;;;;;;;78.72;28.95;;;;;;;;;;5017810;28;20053;-40
2022/11/15 01:20:05;;;;;;;56.47;26.80;;;;;;;;;;5019131;28;20047;-39
2022/11/15 01:22:51;;;;;;;60.72;27.92;;;;;;;;;;5018127;28;20514;-40
2022/11/15 01:25:36;;;;;;;70.18;27.95;;;;;;;;;;5022007;28;20076;-39
2022/11/15 01:28:20;;;;;;;58.53;25.95;;;;;;;;;;5016617;28;20091;-40
2022/11/15 01:31:11;;;;;;;66.00;28.83;;;;;;;;;;5019737;28;20135;-39
2022/11/15 01:33:56;;;;;;;59.83;27.95;;;;;;;;;;5019725;28;20053;-38
2022/11/15 01:36:41;;;;;;;62.53;30.35;;;;;;;;;;5018453;28;20112;-39
2022/11/15 01:39:26;;;;;;;67.43;28.67;;;;;;;;;;5014427;28;20188;-38
2022/11/15 01:42:14;;;;;;;57.03;27.75;;;;;;;;;;5012957;28;20049;-38
2022/11/15 01:45:00;;;;;;;64.93;30.15;;;;;;;;;;5016194;28;20064;-39
2022/11/15 01:47:47;;;;;;;84.25;32.55;;;;;;;;;;5014578;28;20057;-40
2022/11/15 01:50:32;;;;;;;61.47;29.00;;;;;;;;;;5018886;28;20168;-39
2022/11/15 01:53:19;;;;;;;67.60;29.90;;;;;;;;;;5018276;28;20076;-40
2022/11/15 01:56:06;;;;;;;71.97;31.20;;;;;;;;;;5018085;28;20697;-39
2022/11/15 01:58:52;;;;;;;64.28;29.42;;;;;;;;;;5019493;28;20060;-38
2022/11/15 02:01:38;;;;;;;71.78;32.28;;;;;;;;;;5020626;28;20056;-39
2022/11/15 02:04:27;;;;;;;72.10;32.20;;;;;;;;;;5015790;28;20053;-38
2022/11/15 02:07:17;;;;;;;67.32;30.52;;;;;;;;;;5014769;28;20065;-39
2022/11/15 02:10:06;;;;;;;72.15;30.23;;;;;;;;;;5017467;28;20159;-39
2022/11/15 02:12:51;;;;;;;72.75;30.30;;;;;;;;;;5014917;28;20231;-39
2022/11/15 02:15:40;;;;;;;69.70;30.65;;;;;;;;;;5017484;28;20071;-38
2022/11/15 02:18:28;;;;;;;66.55;29.95;;;;;;;;;;5015262;28;20061;-38
2022/11/15 02:21:18;;;;;;;70.68;29.50;;;;;;;;;;5015085;28;20131;-39
2022/11/15 02:24:20;;;;;;;64.85;31.02;;;;;;;;;;5016025;28;20422;-40
2022/11/15 02:27:24;;;;;;;70.47;29.55;;;;;;;;;;5020692;28;20052;-39
2022/11/15 02:30:09;;;;;;;75.55;30.02;;;;;;;;;;5015250;28;20057;-39
2022/11/15 02:33:04;;;;;;;93.30;30.30;;;;;;;;;;5015310;28;20045;-39
2022/11/15 02:35:58;;;;;;;77.22;30.33;;;;;;;;;;5016220;28;20068;-39
2022/11/15 02:38:43;;;;;;;;;;;;;;;;;;5019734;28;20496;-39
2022/11/15 02:41:32;;;;;;;79.43;30.05;;;;;;;;;;5016474;28;19927;-39
2022/11/15 02:44:21;;;;;;;80.97;32.30;;;;;;;;;;5014673;28;20135;-41
2022/11/15 02:47:14;;;;;;;67.82;29.10;;;;;;;;;;5019231;28;20057;-38
2022/11/15 02:50:01;;;;;;;81.10;32.47;;;;;;;;;;5020701;28;20096;-39
2022/11/15 02:52:48;;;;;;;79.22;30.95;;;;;;;;;;5016440;28;20425;-40
2022/11/15 02:55:34;;;;;;;74.75;31.80;;;;;;;;;;5020130;28;20064;-40
2022/11/15 02:58:27;;;;;;;79.00;31.67;;;;;;;;;;5015684;28;20613;-38
2022/11/15 03:01:15;;;;;;;75.55;34.22;;;;;;;;;;5014628;28;20087;-39
2022/11/15 03:04:23;;;;;;;77.20;31.95;;;;;;;;;;5016419;28;20536;-38
2022/11/15 03:07:18;;;;;;;73.72;33.33;;;;;;;;;;5010925;28;20055;-38
2022/11/15 03:10:27;;;;;;;81.75;33.63;;;;;;;;;;5016216;28;20126;-39
2022/11/15 03:13:18;;;;;;;80.93;34.33;;;;;;;;;;5014875;28;20052;-39
2022/11/15 03:16:05;;;;;;;90.82;34.53;;;;;;;;;;5009825;28;20069;-39
2022/11/15 03:18:54;;;;;;;85.00;35.13;;;;;;;;;;5011523;28;20049;-39
2022/11/15 03:21:40;;;;;;;87.55;35.95;;;;;;;;;;5009762;28;20501;-39
2022/11/15 03:24:26;;;;;;;82.00;33.28;;;;;;;;;;5016991;28;20079;-39
2022/11/15 03:27:12;;;;;;;83.35;34.72;;;;;;;;;;5017792;28;20052;-38
2022/11/15 03:30:00;;;;;;;89.18;35.83;;;;;;;;;;5016621;28;20196;-39
2022/11/15 03:32:47;;;;;;;82.72;34.03;;;;;;;;;;5016116;28;20096;-40
2022/11/15 03:35:37;;;;;;;78.50;33.80;;;;;;;;;;5018291;28;20068;-39
2022/11/15 03:38:24;;;;;;;94.10;33.83;;;;;;;;;;5016324;28;20140;-39
2022/11/15 03:41:16;;;;;;;75.78;32.92;;;;;;;;;;5018624;28;20057;-39
2022/11/15 03:44:13;;;;;;;82.03;32.83;;;;;;;;;;5020224;28;20435;-39
2022/11/15 03:47:06;;;;;;;89.60;34.33;;;;;;;;;;5017703;28;20638;-39
2022/11/15 03:49:53;;;;;;;96.97;33.20;;;;;;;;;;5017895;28;20088;-38
2022/11/15 03:52:39;;;;;;;82.25;32.97;;;;;;;;;;5019136;28;20175;-39
2022/11/15 03:55:24;;;;;;;89.72;33.35;;;;;;;;;;5016201;28;20553;-38
2022/11/15 03:58:09;;;;;;;95.13;34.42;;;;;;;;;;5017089;28;20072;-39
2022/11/15 04:00:54;;;;;;;89.63;35.28;;;;;;;;;;5019107;28;20586;-38
2022/11/15 04:03:39;;;;;;;98.00;35.22;;;;;;;;;;5020812;28;20049;-38
2022/11/15 04:06:24;;;;;;;76.43;31.98;;;;;;;;;;5017540;28;20057;-38
2022/11/15 04:09:09;;;;;;;74.93;30.52;;;;;;;;;;5016201;28;20056;-38
2022/11/15 04:11:54;;;;;;;96.28;34.97;;;;;;;;;;5015193;28;20053;-39
2022/11/15 04:15:06;;;;;;;77.75;31.23;;;;;;;;;;5019900;28;20053;-40
2022/11/15 04:17:48;;;;;;;84.35;30.73;;;;;;;;;;5018757;28;20934;-39
2022/11/15 04:26:41;;;;;;;79.75;31.27;;;;;;;;;;5017483;28;20060;-39
2022/11/15 04:29:35;;;;;;;93.85;32.63;;;;;;;;;;5018102;28;20529;-39
2022/11/15 04:32:20;;;;;;;98.20;33.50;;;;;;;;;;5019332;28;20052;-39
2022/11/15 04:35:05;;;;;;;94.47;34.83;;;;;;;;;;5022306;28;20529;-40
2022/11/15 04:37:50;;;;;;;88.13;34.13;;;;;;;;;;5023309;28;20071;-40
2022/11/15 04:40:36;;;;;;;102.60;35.53;;;;;;;;;;5017182;28;20513;-39
2022/11/15 04:43:22;;;;;;;99.35;33.47;;;;;;;;;;5014635;28;20418;-40
2022/11/15 04:46:07;;;;;;;82.45;32.75;;;;;;;;;;5019608;28;20048;-39
2022/11/15 04:48:52;;;;;;;98.72;32.53;;;;;;;;;;5021574;28;20126;-39
2022/11/15 04:51:42;;;;;;;95.13;34.22;;;;;;;;;;5022011;28;20394;-38
2022/11/15 04:54:27;;;;;;;79.95;31.73;;;;;;;;;;5016528;28;20061;-39
2022/11/15 04:57:12;;;;;;;87.65;32.17;;;;;;;;;;5018778;28;20056;-41
2022/11/15 04:59:57;;;;;;;90.32;32.58;;;;;;;;;;5017834;28;20433;-39
2022/11/15 05:05:46;;;;;;;100.32;35.03;;;;;;;;;;5019264;28;20595;-40
2022/11/15 05:08:30;;;;;;;93.82;33.53;;;;;;;;;;5017232;28;20099;-39
2022/11/15 05:11:15;;;;;;;91.30;32.90;;;;;;;;;;5018936;28;20160;-39
2022/11/15 05:14:00;;;;;;;96.95;34.15;;;;;;;;;;5021092;28;20059;-39
2022/11/15 05:16:45;;;;;;;84.82;31.85;;;;;;;;;;5018831;28;20509;-41
2022/11/15 05:19:30;;;;;;;89.43;31.83;;;;;;;;;;5016911;28;20057;-39
2022/11/15 05:22:15;;;;;;;108.53;35.38;;;;;;;;;;5017885;28;20113;-38
2022/11/15 05:25:00;;;;;;;87.47;32.70;;;;;;;;;;5016096;28;20052;-39
2022/11/15 05:27:44;;;;;;;95.05;34.78;;;;;;;;;;5019088;28;20414;-38
2022/11/15 05:30:29;;;;;;;84.28;33.00;;;;;;;;;;5018955;28;20080;-38
2022/11/15 05:33:14;;;;;;;82.03;31.42;;;;;;;;;;5015811;28;20057;-38
2022/11/15 05:36:19;;;;;;;87.45;33.03;;;;;;;;;;5014296;28;20065;-38
2022/11/15 05:39:05;;;;;;;100.53;34.38;;;;;;;;;;5019500;28;20056;-38
2022/11/15 05:41:56;;;;;;;95.57;34.28;;;;;;;;;;5015225;28;20068;-39
2022/11/15 05:44:44;;;;;;;89.00;33.35;;;;;;;;;;5018336;28;20056;-38
2022/11/15 05:47:29;;;;;;;113.30;35.90;;;;;;;;;;5017040;28;20175;-38
2022/11/15 05:50:15;;;;;;;106.07;36.65;;;;;;;;;;5018921;28;20152;-39
2022/11/15 05:53:01;;;;;;;102.88;36.92;;;;;;;;;;5020951;28;20521;-38
2022/11/15 05:55:49;;;;;;;102.00;36.38;;;;;;;;;;5017895;28;20266;-38
2022/11/15 05:58:35;;;;;;;94.82;34.80;;;;;;;;;;5018831;28;20056;-38
2022/11/15 06:01:19;;;;;;;128.18;38.28;;;;;;;;;;5016632;28;20074;-39
2022/11/15 06:04:04;;;;;;;99.45;37.42;;;;;;;;;;5015575;28;20103;-40
2022/11/15 06:06:49;;;;;;;105.47;35.88;;;;;;;;;;5019543;28;20044;-39
2022/11/15 06:09:34;;;;;;;101.70;36.40;;;;;;;;;;5016025;28;20660;-39
2022/11/15 06:12:19;;;;;;;110.22;36.72;;;;;;;;;;5013757;28;20407;-39
2022/11/15 06:15:04;;;;;;;105.82;36.63;;;;;;;;;;5017629;28;20076;-39
2022/11/15 06:17:49;;;;;;;104.03;39.22;;;;;;;;;;5014123;28;20076;-38
2022/11/15 06:20:34;;;;;;;106.68;37.55;;;;;;;;;;5017525;28;20049;-39
2022/11/15 06:23:19;;;;;;;124.72;39.42;;;;;;;;;;5017144;28;20144;-38
2022/11/15 06:26:04;;;;;;;99.38;35.95;;;;;;;;;;5021625;28;20096;-38
2022/11/15 06:28:49;;;;;;;110.40;38.10;;;;;;;;;;5019142;28;20063;-38
2022/11/15 06:31:34;;;;;;;104.80;36.08;;;;;;;;;;5016086;28;20049;-39
2022/11/15 06:34:19;;;;;;;104.70;36.25;;;;;;;;;;5012071;28;20060;-38
2022/11/15 06:37:04;;;;;;;115.05;37.97;;;;;;;;;;5015281;28;20454;-38
2022/11/15 06:39:49;;;;;;;125.40;37.88;;;;;;;;;;5016605;28;20533;-38
2022/11/15 06:42:33;;;;;;;97.80;34.50;;;;;;;;;;5013560;28;20061;-38
2022/11/15 06:45:18;;;;;;;112.38;35.35;;;;;;;;;;5016629;28;20045;-38
2022/11/15 06:48:03;;;;;;;103.70;35.03;;;;;;;;;;5019036;28;20044;-38
2022/11/15 06:50:56;;;;;;;118.85;35.78;;;;;;;;;;5014165;28;20529;-38
2022/11/15 06:53:41;;;;;;;111.40;35.25;;;;;;;;;;5017975;28;20060;-38
2022/11/15 06:56:26;;;;;;;114.65;33.38;;;;;;;;;;5015438;28;20064;-38
2022/11/15 06:59:11;;;;;;;128.05;36.85;;;;;;;;;;5017949;28;20556;-38
2022/11/15 07:01:56;;;;;;;104.05;34.58;;;;;;;;;;5018701;28;20052;-38
2022/11/15 07:04:40;;;;;;;110.57;38.80;;;;;;;;;;5018325;28;20072;-39
2022/11/15 07:07:25;;;;;;;112.00;35.70;;;;;;;;;;5016633;28;20057;-38
2022/11/15 07:10:11;;;;;;;107.60;35.13;;;;;;;;;;5015842;28;20602;-38
2022/11/15 07:12:56;;;;;;;114.13;35.20;;;;;;;;;;5015743;28;20061;-38
2022/11/15 07:15:41;;;;;;;106.43;33.40;;;;;;;;;;5016384;28;20080;-38
2022/11/15 07:18:27;;;;;;;97.70;34.15;;;;;;;;;;5014551;28;20195;-38
2022/11/15 07:21:15;;;;;;;110.05;35.60;;;;;;;;;;5013363;28;20064;-38
2022/11/15 07:24:00;;;;;;;108.45;35.38;;;;;;;;;;5014030;28;20064;-38
2022/11/15 07:26:45;;;;;;;117.78;37.22;;;;;;;;;;5013196;28;20391;-38
2022/11/15 07:29:30;;;;;;;135.38;37.95;;;;;;;;;;5017323;28;26769;-39
2022/11/15 07:32:15;;;;;;;115.43;35.90;;;;;;;;;;5019951;28;20056;-38
2022/11/15 07:35:00;;;;;;;111.63;35.55;;;;;;;;;;5025497;28;20200;-39
2022/11/15 07:37:52;;;;;;;131.25;37.28;;;;;;;;;;5021200;28;20415;-38
2022/11/15 07:40:37;;;;;;;98.38;32.05;;;;;;;;;;5022216;28;20060;-39
2022/11/15 07:43:22;;;;;;;117.50;36.13;;;;;;;;;;5015423;28;20073;-39
2022/11/15 07:46:09;;;;;;;92.53;32.95;;;;;;;;;;5018454;28;20172;-39
2022/11/15 07:48:54;;;;;;;124.18;36.75;;;;;;;;;;5020253;28;20525;-38
2022/11/15 07:51:39;;;;;;;116.13;37.75;;;;;;;;;;5015180;28;20095;-39
2022/11/15 07:54:24;;;;;;;107.47;35.63;;;;;;;;;;5019439;28;20131;-39
2022/11/15 07:57:09;;;;;;;110.53;31.20;;;;;;;;;;5021300;28;20541;-39
2022/11/15 07:59:55;;;;;;;110.95;30.02;;;;;;;;;;5017119;28;20056;-38
2022/11/15 08:02:40;;;;;;;105.30;32.47;;;;;;;;;;5021198;28;20048;-38
2022/11/15 08:05:25;;;;;;;115.95;34.45;;;;;;;;;;5018602;28;20131;-39
2022/11/15 08:08:10;;;;;;;93.55;32.10;;;;;;;;;;5021806;28;20061;-38
2022/11/15 08:10:59;;;;;;;101.15;31.25;;;;;;;;;;5017955;28;20525;-39
2022/11/15 08:13:44;;;;;;;105.75;31.67;;;;;;;;;;5020099;28;20053;-38
2022/11/15 08:16:29;;;;;;;98.20;30.90;;;;;;;;;;5019794;28;20116;-39
2022/11/15 08:19:14;;;;;;;106.63;34.20;;;;;;;;;;5020158;28;20053;-39
2022/11/15 08:21:59;;;;;;;109.00;34.90;;;;;;;;;;5018572;28;20052;-38
2022/11/15 08:24:44;;;;;;;115.25;32.90;;;;;;;;;;5020279;28;20052;-39
2022/11/15 08:27:29;;;;;;;118.03;33.97;;;;;;;;;;5016801;28;20453;-39
2022/11/15 08:30:15;;;;;;;97.95;31.33;;;;;;;;;;5015781;28;20506;-39
2022/11/15 08:33:00;;;;;;;93.93;30.35;;;;;;;;;;5016973;28;20139;-40
2022/11/15 08:35:45;;;;;;;111.95;33.45;;;;;;;;;;5019221;28;20137;-38
2022/11/15 08:38:30;;;;;;;102.53;32.95;;;;;;;;;;5017395;28;20510;-39
2022/11/15 08:41:23;;;;;;;100.07;31.83;;;;;;;;;;5032772;28;20076;-38
2022/11/15 08:44:09;;;;;;;92.20;32.25;;;;;;;;;;5023741;28;20100;-39
2022/11/15 08:46:54;;;;;;;94.47;32.95;;;;;;;;;;5020991;28;20060;-38
2022/11/15 08:49:39;;;;;;;101.55;31.52;;;;;;;;;;5021034;28;20060;-39
2022/11/15 08:52:24;;;;;;;121.05;35.55;;;;;;;;;;5017928;28;20068;-38
2022/11/15 08:55:09;;;;;;;112.35;36.42;;;;;;;;;;5015165;28;20053;-39
2022/11/15 08:57:56;;;;;;;115.63;34.17;;;;;;;;;;5018812;28;20532;-39
2022/11/15 09:00:41;;;;;;;101.40;32.88;;;;;;;;;;5014393;28;20620;-39
2022/11/15 09:03:26;;;;;;;97.07;32.47;;;;;;;;;;5020697;28;20749;-38
2022/11/15 09:06:11;;;;;;;101.78;35.05;;;;;;;;;;5019719;28;20187;-38
2022/11/15 09:08:56;;;;;;;108.00;35.35;;;;;;;;;;5015849;28;20052;-39
2022/11/15 09:11:42;;;;;;;121.60;35.95;;;;;;;;;;5016672;28;20056;-39
2022/11/15 09:14:26;;;;;;;121.80;35.08;;;;;;;;;;5016912;28;20057;-38
2022/11/15 09:17:11;;;;;;;117.72;34.50;;;;;;;;;;5020789;28;20179;-39
2022/11/15 09:19:56;;;;;;;113.80;33.70;;;;;;;;;;5019703;28;20636;-39
2022/11/15 09:22:41;;;;;;;99.20;31.40;;;;;;;;;;5019171;28;20048;-38
2022/11/15 09:25:26;;;;;;;103.88;32.65;;;;;;;;;;5018209;28;20131;-38
2022/11/15 09:28:11;;;;;;;122.15;37.45;;;;;;;;;;5019000;28;20192;-38
2022/11/15 09:31:03;;;;;;;105.10;33.17;;;;;;;;;;5015791;28;20060;-39
2022/11/15 09:33:48;;;;;;;102.20;32.10;;;;;;;;;;5018809;28;20207;-38
2022/11/15 09:36:33;;;;;;;96.47;32.00;;;;;;;;;;5018483;28;20052;-39
2022/11/15 09:39:18;;;;;;;89.45;31.25;;;;;;;;;;5014798;28;20457;-39
2022/11/15 09:42:10;;;;;;;95.72;32.08;;;;;;;;;;5014003;28;20065;-40
2022/11/15 09:45:07;;;;;;;91.45;31.73;;;;;;;;;;5015308;28;20053;-40
2022/11/15 09:48:11;;;;;;;79.78;29.60;;;;;;;;;;5019528;28;20536;-39
2022/11/15 09:51:14;;;;;;;73.82;28.90;;;;;;;;;;5002921;28;20049;-38
2022/11/15 09:53:58;;;;;;;91.57;32.28;;;;;;;;;;5018267;28;20450;-38
2022/11/15 09:56:45;;;;;;;90.22;31.67;;;;;;;;;;5015647;28;20058;-38
2022/11/15 09:59:17;;;;;;;77.50;31.45;;;;;;;;;;5021603;28;20044;-39
2022/11/15 10:01:44;;;;;;;85.75;30.73;;;;;;;;;;5018779;28;20053;-39
2022/11/15 10:04:10;;;;;;;104.63;33.22;;;;;;;;;;5019743;28;20064;-39
2022/11/15 10:06:42;;;;;;;82.70;32.35;;;;;;;;;;5020468;28;20056;-38
2022/11/15 10:09:14;;;;;;;78.80;30.35;;;;;;;;;;5016309;28;20040;-39
2022/11/15 10:11:46;;;;;;;82.80;29.05;;;;;;;;;;5019129;28;20120;-39
2022/11/15 10:14:15;;;;;;;78.38;30.25;;;;;;;;;;5020887;28;20100;-39
2022/11/15 10:16:44;;;;;;;81.13;29.83;;;;;;;;;;5018354;28;20038;-39
2022/11/15 10:19:43;;;;;;;86.10;31.13;;;;;;;;;;5019228;28;20052;-39
2022/11/15 10:22:09;;;;;;;85.60;30.85;;;;;;;;;;4996119;28;20061;-39
2022/11/15 10:24:45;;;;;;;66.28;27.63;;;;;;;;;;4989801;28;20442;-40
2022/11/15 10:27:13;;;;;;;73.45;28.17;;;;;;;;;;4991938;28;20043;-39
2022/11/15 10:29:47;;;;;;;76.88;28.73;;;;;;;;;;4995145;28;20053;-38
2022/11/15 10:32:14;;;;;;;67.93;26.95;;;;;;;;;;4995090;28;20560;-39
2022/11/15 10:34:41;;;;;;;91.55;29.58;;;;;;;;;;4994265;28;20050;-38
2022/11/15 10:37:08;;;;;;;68.50;27.08;;;;;;;;;;4996604;28;20068;-40
2022/11/15 10:39:34;;;;;;;67.85;26.92;;;;;;;;;;4991659;28;20763;-39
2022/11/15 10:42:19;;;;;;;79.00;26.90;;;;;;;;;;4994495;28;20057;-39
2022/11/15 10:44:46;;;;;;;74.05;28.65;;;;;;;;;;4994691;28;20050;-38
2022/11/15 10:47:24;;;;;;;81.60;28.10;;;;;;;;;;4999633;28;20420;-39
2022/11/15 10:49:55;;;;;;;89.35;28.80;;;;;;;;;;4995495;28;20078;-40
2022/11/15 10:52:23;;;;;;;80.38;31.58;;;;;;;;;;4994245;28;20054;-39
2022/11/15 10:54:50;;;;;;;77.90;30.42;;;;;;;;;;4991899;28;20058;-39
2022/11/15 10:57:18;;;;;;;72.13;28.05;;;;;;;;;;5000984;28;20410;-39
2022/11/15 10:59:46;;;;;;;88.85;30.45;;;;;;;;;;5016264;28;20116;-39
2022/11/15 11:02:32;;;;;;;82.40;30.50;;;;;;;;;;5017801;28;20503;-39
2022/11/15 11:04:59;;;;;;;79.60;30.83;;;;;;;;;;5017901;28;20501;-38
2022/11/15 11:07:27;;;;;;;88.55;30.70;;;;;;;;;;5018399;28;20037;-40
2022/11/15 11:10:17;;;;;;;81.15;30.52;;;;;;;;;;5012357;28;20050;-39
2022/11/15 11:13:14;;;;;;;79.03;29.13;;;;;;;;;;5019819;28;20053;-39
2022/11/15 11:15:41;;;;;;;86.55;30.67;;;;;;;;;;5019102;28;20140;-37
2022/11/15 11:18:15;;;;;;;76.60;30.25;;;;;;;;;;5014257;28;20057;-39
2022/11/15 11:20:45;;;;;;;81.20;33.13;;;;;;;;;;5017996;28;20038;-40
2022/11/15 11:23:26;;;;;;;97.78;31.70;;;;;;;;;;5018244;28;20041;-39
2022/11/15 11:25:55;;;;;;;96.00;30.88;;;;;;;;;;5018442;28;20041;-40
2022/11/15 11:28:41;;;;;;;98.47;32.55;;;;;;;;;;5016072;28;20399;-40
2022/11/15 11:31:08;;;;;;;83.78;31.33;;;;;;;;;;5016743;28;20418;-39
2022/11/15 11:33:42;;;;;;;98.75;33.05;;;;;;;;;;5013373;28;20065;-39
2022/11/15 11:36:16;;;;;;;85.05;30.05;;;;;;;;;;5013765;28;20042;-39
2022/11/15 11:38:46;;;;;;;93.10;32.33;;;;;;;;;;5016547;28;20532;-39
2022/11/15 11:41:31;;;;;;;87.45;31.85;;;;;;;;;;5017328;28;20046;-39
2022/11/15 11:44:00;;;;;;;86.88;32.50;;;;;;;;;;5018124;28;20049;-38
2022/11/15 11:46:50;;;;;;;78.50;31.20;;;;;;;;;;5014625;28;20099;-38
2022/11/15 11:49:20;;;;;;;93.90;31.83;;;;;;;;;;5009424;28;20073;-39
2022/11/15 11:51:52;;;;;;;80.55;31.23;;;;;;;;;;5018459;28;20065;-38
2022/11/15 11:54:22;;;;;;;79.90;31.85;;;;;;;;;;5017575;28;20093;-38
2022/11/15 11:56:49;;;;;;;86.60;31.23;;;;;;;;;;5013678;28;20445;-39
2022/11/15 11:59:36;;;;;;;76.10;30.88;;;;;;;;;;5018152;28;20061;-39
2022/11/15 12:02:12;;;;;;;93.88;34.83;;;;;;;;;;5012893;28;20072;-39
2022/11/15 12:04:40;;;;;;;97.28;33.65;;;;;;;;;;5011784;28;20068;-38
2022/11/15 12:07:19;;;;;;;77.40;30.15;;;;;;;;;;5007470;28;20038;-38
2022/11/15 12:09:46;;;;;;;85.78;32.53;;;;;;;;;;5010593;28;20096;-39
2022/11/15 12:12:31;;;;;;;79.68;31.13;;;;;;;;;;5009200;28;20065;-38
2022/11/15 12:15:03;;;;;;;78.72;34.03;;;;;;;;;;5010142;28;20437;-38
2022/11/15 12:17:31;;;;;;;95.22;35.25;;;;;;;;;;5010002;28;20054;-40
2022/11/15 12:19:59;;;;;;;129.82;47.35;;;;;;;;;;5015014;28;20065;-38
2022/11/15 12:22:44;;;;;;;94.38;36.40;;;;;;;;;;5015155;28;20042;-38
2022/11/15 12:25:14;;;;;;;104.97;37.65;;;;;;;;;;5013438;28;20486;-39
2022/11/15 12:27:42;;;;;;;82.55;34.42;;;;;;;;;;5013551;28;20402;-39
2022/11/15 12:30:12;;;;;;;76.13;33.22;;;;;;;;;;5014446;28;20116;-39
2022/11/15 12:32:40;;;;;;;90.95;35.80;;;;;;;;;;5012489;28;20038;-38
2022/11/15 12:35:21;;;;;;;90.60;34.28;;;;;;;;;;5015256;28;20091;-39
2022/11/15 12:37:49;;;;;;;114.47;36.40;;;;;;;;;;5013009;28;20070;-38
2022/11/15 12:40:17;;;;;;;82.20;33.13;;;;;;;;;;5014320;28;20044;-38
2022/11/15 12:42:58;;;;;;;87.70;35.30;;;;;;;;;;5011987;28;20034;-38
2022/11/15 12:45:27;;;;;;;84.68;35.13;;;;;;;;;;5017809;28;20545;-38
2022/11/15 12:47:56;;;;;;;78.75;32.67;;;;;;;;;;5020453;28;20048;-38
2022/11/15 12:50:41;;;;;;;107.82;37.85;;;;;;;;;;5022448;28;20057;-39
2022/11/15 12:53:22;;;;;;;80.30;34.05;;;;;;;;;;5020743;28;20461;-38
2022/11/15 12:56:04;;;;;;;98.82;37.88;;;;;;;;;;5021461;28;20111;-38
2022/11/15 12:58:46;;;;;;;94.65;36.45;;;;;;;;;;5013907;28;20148;-38
2022/11/15 13:01:31;;;;;;;92.95;35.20;;;;;;;;;;5017133;28;20042;-38
2022/11/15 13:04:16;;;;;;;96.63;36.80;;;;;;;;;;5018927;28;20049;-38
2022/11/15 13:06:44;;;;;;;95.85;34.45;;;;;;;;;;5013698;28;20034;-39
2022/11/15 13:09:29;;;;;;;90.43;36.00;;;;;;;;;;5017359;28;20449;-39
2022/11/15 13:11:57;;;;;;;92.93;37.75;;;;;;;;;;5015921;28;20052;-38
2022/11/15 13:14:40;;;;;;;104.88;37.30;;;;;;;;;;5019747;28;20080;-38
2022/11/15 13:17:12;;;;;;;87.07;36.03;;;;;;;;;;5020673;28;20053;-38
2022/11/15 13:19:39;;;;;;;90.03;36.60;;;;;;;;;;5018020;28;20053;-39
2022/11/15 13:24:54;;;;;;;106.88;38.97;;;;;;;;;;5021533;28;20127;-38
2022/11/15 13:27:21;;;;;;;96.93;36.60;;;;;;;;;;5018589;28;20033;-39
2022/11/15 13:29:48;;;;;;;91.97;34.08;;;;;;;;;;5019109;28;20109;-38
2022/11/15 13:32:15;;;;;;;104.63;38.80;;;;;;;;;;5018861;28;20048;-38
2022/11/15 13:34:46;;;;;;;106.95;38.25;;;;;;;;;;5021129;28;20046;-39
2022/11/15 13:37:21;;;;;;;111.65;39.35;;;;;;;;;;5008075;28;20075;-37
2022/11/15 13:39:48;;;;;;;112.53;39.75;;;;;;;;;;5020356;28;20471;-38
2022/11/15 13:42:16;;;;;;;121.88;42.47;;;;;;;;;;5015965;28;20041;-38
2022/11/15 13:45:02;;;;;;;135.43;53.03;;;;;;;;;;5014772;28;20446;-38
2022/11/15 13:47:29;;;;;;;124.28;44.85;;;;;;;;;;5001872;28;20050;-39
2022/11/15 13:50:00;;;;;;;101.10;35.13;;;;;;;;;;5021055;28;20072;-42
2022/11/15 13:52:30;;;;;;;102.80;38.25;;;;;;;;;;5014895;28;20125;-37
2022/11/15 13:54:59;;;;;;;100.50;39.20;;;;;;;;;;5020158;28;20384;-37
2022/11/15 13:57:34;;;;;;;100.03;36.40;;;;;;;;;;5014192;28;20072;-37
2022/11/15 14:00:03;;;;;;;102.63;34.95;;;;;;;;;;5016343;28;20132;-37
2022/11/15 14:02:37;;;;;;;101.57;40.10;;;;;;;;;;5015811;28;20038;-37
2022/11/15 14:05:20;;;;;;;124.43;39.55;;;;;;;;;;5020674;28;20049;-37
2022/11/15 14:07:55;;;;;;;102.85;33.75;;;;;;;;;;5018084;28;20486;-37
2022/11/15 14:10:25;;;;;;;118.18;36.75;;;;;;;;;;5012796;28;20038;-37
2022/11/15 14:12:52;;;;;;;111.78;38.08;;;;;;;;;;5009084;28;20399;-36
2022/11/15 14:15:25;;;;;;;116.90;40.92;;;;;;;;;;5010760;28;20038;-37
2022/11/15 14:17:51;;;;;;;120.07;37.22;;;;;;;;;;5011473;28;20104;-37
2022/11/15 14:20:38;;;;;;;128.85;39.42;;;;;;;;;;5007825;28;20141;-37
2022/11/15 14:23:06;;;;;;;134.27;43.60;;;;;;;;;;5014784;28;20045;-38
2022/11/15 14:25:34;;;;;;;154.10;49.90;;;;;;;;;;5013492;28;20034;-37
2022/11/15 14:28:09;;;;;;;115.18;37.22;;;;;;;;;;5018383;28;20045;-37
2022/11/15 14:30:36;;;;;;;109.82;37.38;;;;;;;;;;5012850;28;20037;-37
2022/11/15 14:33:15;;;;;;;101.30;34.17;;;;;;;;;;5017940;28;20069;-37
2022/11/15 14:35:42;;;;;;;138.70;41.50;;;;;;;;;;5015276;28;20117;-38
2022/11/15 14:38:08;;;;;;;88.80;34.95;;;;;;;;;;5020770;28;20044;-37
2022/11/15 14:40:35;;;;;;;115.70;36.70;;;;;;;;;;5014557;28;20401;-37
2022/11/15 14:43:01;;;;;;;130.40;37.88;;;;;;;;;;5018803;28;20073;-37
2022/11/15 14:45:28;;;;;;;119.38;38.22;;;;;;;;;;5011916;28;20038;-38
2022/11/15 14:47:54;;;;;;;144.63;41.45;;;;;;;;;;5017038;28;20049;-38
2022/11/15 14:50:21;;;;;;;126.00;38.38;;;;;;;;;;5018310;28;20049;-37
2022/11/15 14:52:48;;;;;;;131.52;42.92;;;;;;;;;;5020248;28;20068;-37
2022/11/15 14:55:18;;;;;;;84.32;33.70;;;;;;;;;;5014559;28;20525;-37
2022/11/15 14:57:45;;;;;;;150.80;40.25;;;;;;;;;;5017101;28;20096;-39
2022/11/15 15:00:12;;;;;;;127.05;41.72;;;;;;;;;;5012810;28;20042;-36
2022/11/15 15:02:39;;;;;;;129.13;40.55;;;;;;;;;;5013467;28;20046;-37
2022/11/15 15:05:19;;;;;;;158.50;55.72;;;;;;;;;;5019435;28;20045;-38
2022/11/15 15:07:46;;;;;;;138.63;46.75;;;;;;;;;;5020632;28;20103;-37
2022/11/15 15:10:14;;;;;;;156.35;45.85;;;;;;;;;;5009185;28;20040;-37
2022/11/15 15:13:00;;;;;;;146.63;43.30;;;;;;;;;;5019083;28;20046;-37
2022/11/15 15:15:35;;;;;;;214.40;68.80;;;;;;;;;;5016516;28;20033;-38
2022/11/15 15:18:02;;;;;;;155.25;48.80;;;;;;;;;;5017820;28;20053;-37
2022/11/15 15:20:29;;;;;;;156.07;45.92;;;;;;;;;;5017499;28;20472;-37
2022/11/15 15:22:56;;;;;;;147.07;42.22;;;;;;;;;;5020321;28;20049;-39
2022/11/15 15:25:31;;;;;;;142.82;40.85;;;;;;;;;;5011165;28;20044;-37
2022/11/15 15:27:58;;;;;;;133.82;39.55;;;;;;;;;;5019178;28;20667;-37
2022/11/15 15:30:25;;;;;;;133.77;43.25;;;;;;;;;;5011731;28;20501;-37
2022/11/15 15:32:53;;;;;;;134.88;40.80;;;;;;;;;;5018877;28;20173;-37
2022/11/15 15:35:20;;;;;;;136.48;42.30;;;;;;;;;;5009560;28;20041;-41
2022/11/15 15:37:47;;;;;;;178.95;44.08;;;;;;;;;;5005968;28;20042;-38
2022/11/15 15:40:13;;;;;;;132.70;44.30;;;;;;;;;;5010984;28;20103;-40
2022/11/15 15:42:40;;;;;;;146.70;40.92;;;;;;;;;;5013095;28;20045;-36
2022/11/15 15:45:07;;;;;;;120.25;38.20;;;;;;;;;;5016424;28;20053;-37